sensor_id;sensor_type;location;lat;lon;timestamp;temperature;humidity
10316;DHT22;5203;48.976;8.306;2022-12-05T00:02:21;4.60;99.90
10316;DHT22;5203;48.976;8.306;2022-12-05T00:04:47;4.50;99.90
10316;DHT22;5203;48.976;8.306;2022-12-05T00:07:13;4.50;99.90
10316;DHT22;5203;48.976;8.306;2022-12-05T00:09:38;4.50;99.90
10316;DHT22;5203;48.976;8.306;2022-12-05T00:12:04;4.50;99.90
10316;DHT22;5203;48.976;8.306;2022-12-05T00:14:30;4.40;99.90
10316;DHT22;5203;48.976;8.306;2022-12-05T00:16:55;4.50;99.90
10316;DHT22;5203;48.976;8.306;2022-12-05T00:19:21;4.60;99.90
10316;DHT22;5203;48.976;8.306;2022-12-05T00:21:47;4.50;99.90
10316;DHT22;5203;48.976;8.306;2022-12-05T00:24:14;4.60;99.90
10316;DHT22;5203;48.976;8.306;2022-12-05T00:26:41;4.60;99.90
10316;DHT22;5203;48.976;8.306;2022-12-05T00:29:07;4.60;99.90
10316;DHT22;5203;48.976;8.306;2022-12-05T00:31:33;4.60;99.90
10316;DHT22;5203;48.976;8.306;2022-12-05T00:34:00;4.70;99.90
10316;DHT22;5203;48.976;8.306;2022-12-05T00:36:28;4.70;99.90
10316;DHT22;5203;48.976;8.306;2022-12-05T00:38:57;4.80;99.90
10316;DHT22;5203;48.976;8.306;2022-12-05T00:41:24;4.80;99.90
10316;DHT22;5203;48.976;8.306;2022-12-05T00:43:51;4.80;99.90
10316;DHT22;5203;48.976;8.306;2022-12-05T00:46:19;4.80;99.90
10316;DHT22;5203;48.976;8.306;2022-12-05T00:48:44;4.70;99.90
10316;DHT22;5203;48.976;8.306;2022-12-05T00:51:13;4.60;99.90
10316;DHT22;5203;48.976;8.306;2022-12-05T00:53:39;4.40;99.90
10316;DHT22;5203;48.976;8.306;2022-12-05T00:56:12;4.50;99.90
10316;DHT22;5203;48.976;8.306;2022-12-05T00:58:38;4.50;99.90
10316;DHT22;5203;48.976;8.306;2022-12-05T01:01:08;4.40;99.90
10316;DHT22;5203;48.976;8.306;2022-12-05T01:03:35;4.40;99.90
10316;DHT22;5203;48.976;8.306;2022-12-05T01:06:01;4.40;99.90
10316;DHT22;5203;48.976;8.306;2022-12-05T01:08:27;4.40;99.90
10316;DHT22;5203;48.976;8.306;2022-12-05T01:10:54;4.50;99.90
10316;DHT22;5203;48.976;8.306;2022-12-05T01:13:20;4.60;99.90
10316;DHT22;5203;48.976;8.306;2022-12-05T01:15:46;4.50;99.90
10316;DHT22;5203;48.976;8.306;2022-12-05T01:18:12;4.50;99.90
10316;DHT22;5203;48.976;8.306;2022-12-05T01:20:39;4.50;99.90
10316;DHT22;5203;48.976;8.306;2022-12-05T01:23:06;4.60;99.90
10316;DHT22;5203;48.976;8.306;2022-12-05T01:25:32;4.60;99.90
10316;DHT22;5203;48.976;8.306;2022-12-05T01:27:58;4.60;99.90
10316;DHT22;5203;48.976;8.306;2022-12-05T01:30:23;4.60;99.90
10316;DHT22;5203;48.976;8.306;2022-12-05T01:32:49;4.50;99.90
10316;DHT22;5203;48.976;8.306;2022-12-05T01:35:14;4.60;99.90
10316;DHT22;5203;48.976;8.306;2022-12-05T01:37:40;4.50;99.90
10316;DHT22;5203;48.976;8.306;2022-12-05T01:40:06;4.50;99.90
10316;DHT22;5203;48.976;8.306;2022-12-05T01:42:32;4.60;99.90
10316;DHT22;5203;48.976;8.306;2022-12-05T01:45:02;4.70;99.90
10316;DHT22;5203;48.976;8.306;2022-12-05T01:47:30;4.80;99.90
10316;DHT22;5203;48.976;8.306;2022-12-05T01:49:59;4.70;99.90
10316;DHT22;5203;48.976;8.306;2022-12-05T01:52:27;4.70;99.90
10316;DHT22;5203;48.976;8.306;2022-12-05T01:54:58;4.60;99.90
10316;DHT22;5203;48.976;8.306;2022-12-05T01:57:24;4.50;99.90
10316;DHT22;5203;48.976;8.306;2022-12-05T01:59:53;4.60;99.90
10316;DHT22;5203;48.976;8.306;2022-12-05T02:02:20;4.70;99.90
10316;DHT22;5203;48.976;8.306;2022-12-05T02:05:06;4.50;99.90
10316;DHT22;5203;48.976;8.306;2022-12-05T02:07:34;4.40;99.90
10316;DHT22;5203;48.976;8.306;2022-12-05T02:10:01;4.40;99.90
10316;DHT22;5203;48.976;8.306;2022-12-05T02:12:28;4.50;99.90
10316;DHT22;5203;48.976;8.306;2022-12-05T02:37:13;4.20;99.90
10316;DHT22;5203;48.976;8.306;2022-12-05T02:42:28;3.90;99.90
10316;DHT22;5203;48.976;8.306;2022-12-05T02:45:03;3.90;99.90
10316;DHT22;5203;48.976;8.306;2022-12-05T02:47:36;3.90;99.90
10316;DHT22;5203;48.976;8.306;2022-12-05T02:50:03;4.00;99.90
10316;DHT22;5203;48.976;8.306;2022-12-05T02:52:31;3.80;99.90
10316;DHT22;5203;48.976;8.306;2022-12-05T02:54:59;3.90;99.90
10316;DHT22;5203;48.976;8.306;2022-12-05T02:57:24;4.00;99.90
10316;DHT22;5203;48.976;8.306;2022-12-05T02:59:50;4.10;99.90
10316;DHT22;5203;48.976;8.306;2022-12-05T03:02:28;3.90;99.90
10316;DHT22;5203;48.976;8.306;2022-12-05T03:04:57;3.80;99.90
10316;DHT22;5203;48.976;8.306;2022-12-05T03:07:28;3.80;99.90
10316;DHT22;5203;48.976;8.306;2022-12-05T03:09:59;3.70;99.90
10316;DHT22;5203;48.976;8.306;2022-12-05T03:12:34;3.70;99.90
10316;DHT22;5203;48.976;8.306;2022-12-05T03:20:28;3.80;99.90
10316;DHT22;5203;48.976;8.306;2022-12-05T03:22:57;4.00;99.90
10316;DHT22;5203;48.976;8.306;2022-12-05T03:25:32;4.10;99.90
10316;DHT22;5203;48.976;8.306;2022-12-05T03:28:08;4.30;99.90
10316;DHT22;5203;48.976;8.306;2022-12-05T03:30:37;4.50;99.90
10316;DHT22;5203;48.976;8.306;2022-12-05T03:33:16;4.40;99.90
10316;DHT22;5203;48.976;8.306;2022-12-05T03:38:44;4.40;99.90
10316;DHT22;5203;48.976;8.306;2022-12-05T03:46:46;4.40;99.90
10316;DHT22;5203;48.976;8.306;2022-12-05T03:49:23;4.40;99.90
10316;DHT22;5203;48.976;8.306;2022-12-05T03:54:33;4.60;99.90
10316;DHT22;5203;48.976;8.306;2022-12-05T03:57:12;4.80;99.90
10316;DHT22;5203;48.976;8.306;2022-12-05T03:59:46;4.80;99.90
10316;DHT22;5203;48.976;8.306;2022-12-05T04:02:25;4.80;99.90
10316;DHT22;5203;48.976;8.306;2022-12-05T04:05:01;4.90;99.90
10316;DHT22;5203;48.976;8.306;2022-12-05T04:07:31;5.00;99.90
10316;DHT22;5203;48.976;8.306;2022-12-05T04:10:02;5.00;99.90
10316;DHT22;5203;48.976;8.306;2022-12-05T04:12:31;4.90;99.90
10316;DHT22;5203;48.976;8.306;2022-12-05T04:15:17;4.90;99.90
10316;DHT22;5203;48.976;8.306;2022-12-05T04:17:57;4.90;99.90
10316;DHT22;5203;48.976;8.306;2022-12-05T04:23:14;4.80;99.90
10316;DHT22;5203;48.976;8.306;2022-12-05T04:28:41;4.80;99.90
10316;DHT22;5203;48.976;8.306;2022-12-05T04:31:15;4.70;99.90
10316;DHT22;5203;48.976;8.306;2022-12-05T04:41:44;4.70;99.90
10316;DHT22;5203;48.976;8.306;2022-12-05T04:44:16;4.70;99.90
10316;DHT22;5203;48.976;8.306;2022-12-05T04:46:43;4.70;99.90
10316;DHT22;5203;48.976;8.306;2022-12-05T04:49:15;4.50;99.90
10316;DHT22;5203;48.976;8.306;2022-12-05T04:51:43;4.60;99.90
10316;DHT22;5203;48.976;8.306;2022-12-05T04:54:14;4.60;99.90
10316;DHT22;5203;48.976;8.306;2022-12-05T04:56:43;4.50;99.90
10316;DHT22;5203;48.976;8.306;2022-12-05T04:59:11;4.40;99.90
10316;DHT22;5203;48.976;8.306;2022-12-05T05:01:44;4.50;99.90
10316;DHT22;5203;48.976;8.306;2022-12-05T05:04:18;4.40;99.90
10316;DHT22;5203;48.976;8.306;2022-12-05T05:06:46;4.30;99.90
10316;DHT22;5203;48.976;8.306;2022-12-05T05:09:11;4.30;99.90
10316;DHT22;5203;48.976;8.306;2022-12-05T05:11:37;4.30;99.90
10316;DHT22;5203;48.976;8.306;2022-12-05T05:14:04;4.50;99.90
10316;DHT22;5203;48.976;8.306;2022-12-05T05:16:33;4.50;99.90
10316;DHT22;5203;48.976;8.306;2022-12-05T05:18:59;4.60;99.90
10316;DHT22;5203;48.976;8.306;2022-12-05T05:21:27;4.70;99.90
10316;DHT22;5203;48.976;8.306;2022-12-05T05:23:53;4.80;99.90
10316;DHT22;5203;48.976;8.306;2022-12-05T05:26:19;4.90;99.90
10316;DHT22;5203;48.976;8.306;2022-12-05T05:28:45;4.90;99.90
10316;DHT22;5203;48.976;8.306;2022-12-05T05:31:11;4.90;99.90
10316;DHT22;5203;48.976;8.306;2022-12-05T05:33:37;4.90;99.90
10316;DHT22;5203;48.976;8.306;2022-12-05T05:36:12;4.70;99.90
10316;DHT22;5203;48.976;8.306;2022-12-05T05:38:41;4.50;99.90
10316;DHT22;5203;48.976;8.306;2022-12-05T05:41:12;4.40;99.90
10316;DHT22;5203;48.976;8.306;2022-12-05T05:43:39;4.50;99.90
10316;DHT22;5203;48.976;8.306;2022-12-05T05:46:05;4.60;99.90
10316;DHT22;5203;48.976;8.306;2022-12-05T05:48:31;4.60;99.90
10316;DHT22;5203;48.976;8.306;2022-12-05T05:51:00;4.60;99.90
10316;DHT22;5203;48.976;8.306;2022-12-05T05:53:26;4.50;99.90
10316;DHT22;5203;48.976;8.306;2022-12-05T05:55:51;4.70;99.90
10316;DHT22;5203;48.976;8.306;2022-12-05T05:58:17;4.80;99.90
10316;DHT22;5203;48.976;8.306;2022-12-05T06:00:43;4.80;99.90
10316;DHT22;5203;48.976;8.306;2022-12-05T06:03:08;4.70;99.90
10316;DHT22;5203;48.976;8.306;2022-12-05T06:05:34;4.70;99.90
10316;DHT22;5203;48.976;8.306;2022-12-05T06:08:00;4.70;99.90
10316;DHT22;5203;48.976;8.306;2022-12-05T06:10:26;4.80;99.90
10316;DHT22;5203;48.976;8.306;2022-12-05T06:12:54;4.80;99.90
10316;DHT22;5203;48.976;8.306;2022-12-05T06:15:20;5.00;99.90
10316;DHT22;5203;48.976;8.306;2022-12-05T06:17:45;5.00;99.90
10316;DHT22;5203;48.976;8.306;2022-12-05T06:20:11;5.10;99.90
10316;DHT22;5203;48.976;8.306;2022-12-05T06:22:37;5.00;99.90
10316;DHT22;5203;48.976;8.306;2022-12-05T06:25:03;4.80;99.90
10316;DHT22;5203;48.976;8.306;2022-12-05T06:27:29;4.80;99.90
10316;DHT22;5203;48.976;8.306;2022-12-05T06:29:59;4.90;99.90
10316;DHT22;5203;48.976;8.306;2022-12-05T06:32:27;4.90;99.90
10316;DHT22;5203;48.976;8.306;2022-12-05T06:34:53;4.90;99.90
10316;DHT22;5203;48.976;8.306;2022-12-05T06:37:19;4.90;99.90
10316;DHT22;5203;48.976;8.306;2022-12-05T06:39:44;4.90;99.90
10316;DHT22;5203;48.976;8.306;2022-12-05T06:42:10;5.00;99.90
10316;DHT22;5203;48.976;8.306;2022-12-05T06:44:36;4.80;99.90
10316;DHT22;5203;48.976;8.306;2022-12-05T06:47:02;4.70;99.90
10316;DHT22;5203;48.976;8.306;2022-12-05T06:49:27;4.50;99.90
10316;DHT22;5203;48.976;8.306;2022-12-05T06:51:57;4.30;99.90
10316;DHT22;5203;48.976;8.306;2022-12-05T06:54:23;4.30;99.90
10316;DHT22;5203;48.976;8.306;2022-12-05T06:56:49;4.30;99.90
10316;DHT22;5203;48.976;8.306;2022-12-05T06:59:15;4.30;99.90
10316;DHT22;5203;48.976;8.306;2022-12-05T07:01:41;4.10;99.90
10316;DHT22;5203;48.976;8.306;2022-12-05T07:04:15;4.10;99.90
10316;DHT22;5203;48.976;8.306;2022-12-05T07:06:42;4.20;99.90
10316;DHT22;5203;48.976;8.306;2022-12-05T07:09:09;4.20;99.90
10316;DHT22;5203;48.976;8.306;2022-12-05T07:11:35;4.40;99.90
10316;DHT22;5203;48.976;8.306;2022-12-05T07:14:02;4.40;99.90
10316;DHT22;5203;48.976;8.306;2022-12-05T07:16:28;4.50;99.90
10316;DHT22;5203;48.976;8.306;2022-12-05T07:18:54;4.40;99.90
10316;DHT22;5203;48.976;8.306;2022-12-05T07:21:20;4.30;99.90
10316;DHT22;5203;48.976;8.306;2022-12-05T07:23:47;4.20;99.90
10316;DHT22;5203;48.976;8.306;2022-12-05T07:26:19;4.20;99.90
10316;DHT22;5203;48.976;8.306;2022-12-05T07:28:45;4.10;99.90
10316;DHT22;5203;48.976;8.306;2022-12-05T07:31:17;4.10;99.90
10316;DHT22;5203;48.976;8.306;2022-12-05T07:33:43;4.20;99.90
10316;DHT22;5203;48.976;8.306;2022-12-05T07:36:11;4.10;99.90
10316;DHT22;5203;48.976;8.306;2022-12-05T07:38:38;4.30;99.90
10316;DHT22;5203;48.976;8.306;2022-12-05T07:41:09;4.50;99.90
10316;DHT22;5203;48.976;8.306;2022-12-05T07:43:35;4.60;99.90
10316;DHT22;5203;48.976;8.306;2022-12-05T07:46:04;4.50;99.90
10316;DHT22;5203;48.976;8.306;2022-12-05T07:48:31;4.60;99.90
10316;DHT22;5203;48.976;8.306;2022-12-05T07:51:01;4.80;99.90
10316;DHT22;5203;48.976;8.306;2022-12-05T07:53:28;4.70;99.90
10316;DHT22;5203;48.976;8.306;2022-12-05T07:55:54;4.60;99.90
10316;DHT22;5203;48.976;8.306;2022-12-05T07:58:19;4.50;99.90
10316;DHT22;5203;48.976;8.306;2022-12-05T08:00:45;4.40;99.90
10316;DHT22;5203;48.976;8.306;2022-12-05T08:03:11;4.30;99.90
10316;DHT22;5203;48.976;8.306;2022-12-05T08:05:36;4.20;99.90
10316;DHT22;5203;48.976;8.306;2022-12-05T08:08:02;4.20;99.90
10316;DHT22;5203;48.976;8.306;2022-12-05T08:10:28;4.20;99.90
10316;DHT22;5203;48.976;8.306;2022-12-05T08:12:54;4.10;99.90
10316;DHT22;5203;48.976;8.306;2022-12-05T08:15:19;4.30;99.90
10316;DHT22;5203;48.976;8.306;2022-12-05T08:17:45;4.20;99.90
10316;DHT22;5203;48.976;8.306;2022-12-05T08:20:11;4.20;99.90
10316;DHT22;5203;48.976;8.306;2022-12-05T08:22:37;4.30;99.90
10316;DHT22;5203;48.976;8.306;2022-12-05T08:25:03;4.30;99.90
10316;DHT22;5203;48.976;8.306;2022-12-05T08:27:29;4.50;99.90
10316;DHT22;5203;48.976;8.306;2022-12-05T08:29:54;4.60;99.90
10316;DHT22;5203;48.976;8.306;2022-12-05T08:32:20;4.60;99.90
10316;DHT22;5203;48.976;8.306;2022-12-05T08:34:45;4.60;99.90
10316;DHT22;5203;48.976;8.306;2022-12-05T08:37:11;4.50;99.90
10316;DHT22;5203;48.976;8.306;2022-12-05T08:39:37;4.60;99.90
10316;DHT22;5203;48.976;8.306;2022-12-05T08:42:03;4.50;99.90
10316;DHT22;5203;48.976;8.306;2022-12-05T08:44:29;4.40;99.90
10316;DHT22;5203;48.976;8.306;2022-12-05T08:46:55;4.50;99.90
10316;DHT22;5203;48.976;8.306;2022-12-05T08:49:20;4.50;99.90
10316;DHT22;5203;48.976;8.306;2022-12-05T08:51:46;4.60;99.90
10316;DHT22;5203;48.976;8.306;2022-12-05T08:54:12;4.60;99.90
10316;DHT22;5203;48.976;8.306;2022-12-05T08:56:38;4.60;99.90
10316;DHT22;5203;48.976;8.306;2022-12-05T08:59:04;4.60;99.90
10316;DHT22;5203;48.976;8.306;2022-12-05T09:01:30;4.50;99.90
10316;DHT22;5203;48.976;8.306;2022-12-05T09:04:00;4.60;99.90
10316;DHT22;5203;48.976;8.306;2022-12-05T09:06:27;4.60;99.90
10316;DHT22;5203;48.976;8.306;2022-12-05T09:08:59;4.60;99.90
10316;DHT22;5203;48.976;8.306;2022-12-05T09:11:30;4.60;99.90
10316;DHT22;5203;48.976;8.306;2022-12-05T09:13:57;4.70;99.90
10316;DHT22;5203;48.976;8.306;2022-12-05T09:16:29;4.60;99.90
10316;DHT22;5203;48.976;8.306;2022-12-05T09:18:55;4.60;99.90
10316;DHT22;5203;48.976;8.306;2022-12-05T09:21:23;4.50;99.90
10316;DHT22;5203;48.976;8.306;2022-12-05T09:23:50;4.50;99.90
10316;DHT22;5203;48.976;8.306;2022-12-05T09:26:18;4.50;99.90
10316;DHT22;5203;48.976;8.306;2022-12-05T09:28:44;4.70;99.90
10316;DHT22;5203;48.976;8.306;2022-12-05T09:31:12;4.80;99.90
10316;DHT22;5203;48.976;8.306;2022-12-05T09:33:39;4.80;99.90
10316;DHT22;5203;48.976;8.306;2022-12-05T09:36:07;4.70;99.90
10316;DHT22;5203;48.976;8.306;2022-12-05T09:38:33;4.70;99.90
10316;DHT22;5203;48.976;8.306;2022-12-05T09:43:59;4.80;99.90
10316;DHT22;5203;48.976;8.306;2022-12-05T09:46:43;4.70;99.90
10316;DHT22;5203;48.976;8.306;2022-12-05T09:49:11;4.80;99.90
10316;DHT22;5203;48.976;8.306;2022-12-05T09:51:41;4.70;99.90
10316;DHT22;5203;48.976;8.306;2022-12-05T09:54:10;4.70;99.90
10316;DHT22;5203;48.976;8.306;2022-12-05T09:56:37;4.80;99.90
10316;DHT22;5203;48.976;8.306;2022-12-05T09:59:03;4.80;99.90
10316;DHT22;5203;48.976;8.306;2022-12-05T10:01:56;4.70;99.90
10316;DHT22;5203;48.976;8.306;2022-12-05T10:07:35;4.70;99.90
10316;DHT22;5203;48.976;8.306;2022-12-05T10:15:39;4.70;99.90
10316;DHT22;5203;48.976;8.306;2022-12-05T10:18:38;4.80;99.90
10316;DHT22;5203;48.976;8.306;2022-12-05T10:21:18;4.90;99.90
10316;DHT22;5203;48.976;8.306;2022-12-05T10:26:16;4.90;99.90
10316;DHT22;5203;48.976;8.306;2022-12-05T10:31:17;4.80;99.90
10316;DHT22;5203;48.976;8.306;2022-12-05T10:33:50;4.90;99.90
10316;DHT22;5203;48.976;8.306;2022-12-05T10:36:17;5.00;99.90
10316;DHT22;5203;48.976;8.306;2022-12-05T10:38:44;5.20;99.90
10316;DHT22;5203;48.976;8.306;2022-12-05T10:41:12;5.30;99.90
10316;DHT22;5203;48.976;8.306;2022-12-05T10:43:41;5.20;99.90
10316;DHT22;5203;48.976;8.306;2022-12-05T10:46:08;5.30;99.90
10316;DHT22;5203;48.976;8.306;2022-12-05T10:48:37;5.30;99.90
10316;DHT22;5203;48.976;8.306;2022-12-05T10:51:04;5.40;99.90
10316;DHT22;5203;48.976;8.306;2022-12-05T10:53:34;5.40;99.90
10316;DHT22;5203;48.976;8.306;2022-12-05T10:56:02;5.30;99.90
10316;DHT22;5203;48.976;8.306;2022-12-05T10:58:29;5.30;99.90
10316;DHT22;5203;48.976;8.306;2022-12-05T11:01:07;5.30;99.90
10316;DHT22;5203;48.976;8.306;2022-12-05T11:03:34;5.30;99.90
10316;DHT22;5203;48.976;8.306;2022-12-05T11:06:17;5.40;99.90
10316;DHT22;5203;48.976;8.306;2022-12-05T11:08:54;5.40;99.90
10316;DHT22;5203;48.976;8.306;2022-12-05T11:11:28;5.40;99.90
10316;DHT22;5203;48.976;8.306;2022-12-05T11:16:29;5.40;99.90
10316;DHT22;5203;48.976;8.306;2022-12-05T11:19:27;5.40;99.90
10316;DHT22;5203;48.976;8.306;2022-12-05T11:21:53;5.50;99.90
10316;DHT22;5203;48.976;8.306;2022-12-05T11:26:52;5.80;99.90
10316;DHT22;5203;48.976;8.306;2022-12-05T11:32:00;6.00;99.90
10316;DHT22;5203;48.976;8.306;2022-12-05T11:34:30;6.00;99.90
10316;DHT22;5203;48.976;8.306;2022-12-05T11:37:03;6.10;99.90
10316;DHT22;5203;48.976;8.306;2022-12-05T11:39:30;6.00;99.90
10316;DHT22;5203;48.976;8.306;2022-12-05T11:42:05;6.10;99.90
10316;DHT22;5203;48.976;8.306;2022-12-05T11:47:19;6.30;99.90
10316;DHT22;5203;48.976;8.306;2022-12-05T11:55:35;6.60;99.90
10316;DHT22;5203;48.976;8.306;2022-12-05T12:03:54;6.60;99.90
10316;DHT22;5203;48.976;8.306;2022-12-05T12:06:32;6.80;99.90
10316;DHT22;5203;48.976;8.306;2022-12-05T12:14:35;6.60;99.90
10316;DHT22;5203;48.976;8.306;2022-12-05T12:20:39;6.50;99.90
10316;DHT22;5203;48.976;8.306;2022-12-05T12:28:57;6.00;99.90
10316;DHT22;5203;48.976;8.306;2022-12-05T12:32:00;5.90;99.90
10316;DHT22;5203;48.976;8.306;2022-12-05T12:40:47;6.40;99.90
10316;DHT22;5203;48.976;8.306;2022-12-05T12:51:31;6.60;99.90
10316;DHT22;5203;48.976;8.306;2022-12-05T12:56:53;6.70;99.90
10316;DHT22;5203;48.976;8.306;2022-12-05T13:04:53;6.70;99.90
10316;DHT22;5203;48.976;8.306;2022-12-05T13:07:38;6.70;99.90
10316;DHT22;5203;48.976;8.306;2022-12-05T13:12:48;6.50;99.90
10316;DHT22;5203;48.976;8.306;2022-12-05T13:15:17;6.40;99.90
10316;DHT22;5203;48.976;8.306;2022-12-05T13:17:47;6.50;99.90
10316;DHT22;5203;48.976;8.306;2022-12-05T13:20:19;6.40;99.90
10316;DHT22;5203;48.976;8.306;2022-12-05T13:22:50;6.40;99.90
10316;DHT22;5203;48.976;8.306;2022-12-05T13:25:18;6.50;99.90
10316;DHT22;5203;48.976;8.306;2022-12-05T13:28:00;6.50;99.90
10316;DHT22;5203;48.976;8.306;2022-12-05T13:30:27;6.50;99.90
10316;DHT22;5203;48.976;8.306;2022-12-05T13:33:08;6.50;99.90
10316;DHT22;5203;48.976;8.306;2022-12-05T13:35:35;6.60;99.90
10316;DHT22;5203;48.976;8.306;2022-12-05T13:38:32;6.50;99.90
10316;DHT22;5203;48.976;8.306;2022-12-05T13:41:18;6.50;99.90
10316;DHT22;5203;48.976;8.306;2022-12-05T13:44:03;6.50;99.90
10316;DHT22;5203;48.976;8.306;2022-12-05T13:46:38;6.50;99.90
10316;DHT22;5203;48.976;8.306;2022-12-05T13:51:42;6.50;99.50
10316;DHT22;5203;48.976;8.306;2022-12-05T13:54:25;6.50;99.90
10316;DHT22;5203;48.976;8.306;2022-12-05T13:57:00;6.50;99.90
10316;DHT22;5203;48.976;8.306;2022-12-05T14:00:03;6.50;98.90
10316;DHT22;5203;48.976;8.306;2022-12-05T14:07:54;6.60;98.50
10316;DHT22;5203;48.976;8.306;2022-12-05T14:12:56;6.60;98.30
10316;DHT22;5203;48.976;8.306;2022-12-05T14:18:16;6.50;97.40
10316;DHT22;5203;48.976;8.306;2022-12-05T14:21:01;6.50;98.10
10316;DHT22;5203;48.976;8.306;2022-12-05T14:37:54;6.40;98.20
10316;DHT22;5203;48.976;8.306;2022-12-05T14:40:39;6.40;98.90
10316;DHT22;5203;48.976;8.306;2022-12-05T14:50:51;6.50;99.00
10316;DHT22;5203;48.976;8.306;2022-12-05T15:04:18;6.50;99.70
10316;DHT22;5203;48.976;8.306;2022-12-05T15:06:53;6.50;99.50
10316;DHT22;5203;48.976;8.306;2022-12-05T15:09:49;6.60;98.70
10316;DHT22;5203;48.976;8.306;2022-12-05T15:14:56;6.30;99.90
10316;DHT22;5203;48.976;8.306;2022-12-05T15:17:29;6.20;99.90
10316;DHT22;5203;48.976;8.306;2022-12-05T15:20:03;6.20;99.90
10316;DHT22;5203;48.976;8.306;2022-12-05T15:22:33;6.10;99.90
10316;DHT22;5203;48.976;8.306;2022-12-05T15:25:33;6.30;99.90
10316;DHT22;5203;48.976;8.306;2022-12-05T15:28:15;6.40;99.90
10316;DHT22;5203;48.976;8.306;2022-12-05T15:30:42;6.40;99.80
10316;DHT22;5203;48.976;8.306;2022-12-05T15:33:11;6.50;99.60
10316;DHT22;5203;48.976;8.306;2022-12-05T15:35:37;6.60;99.20
10316;DHT22;5203;48.976;8.306;2022-12-05T15:38:10;6.50;99.50
10316;DHT22;5203;48.976;8.306;2022-12-05T15:40:45;6.30;99.90
10316;DHT22;5203;48.976;8.306;2022-12-05T15:43:32;6.20;99.90
10316;DHT22;5203;48.976;8.306;2022-12-05T15:46:18;6.30;99.90
10316;DHT22;5203;48.976;8.306;2022-12-05T15:48:50;6.20;99.90
10316;DHT22;5203;48.976;8.306;2022-12-05T15:51:17;6.10;99.90
10316;DHT22;5203;48.976;8.306;2022-12-05T15:53:50;6.10;99.90
10316;DHT22;5203;48.976;8.306;2022-12-05T15:56:21;6.10;99.90
10316;DHT22;5203;48.976;8.306;2022-12-05T15:59:06;6.20;99.90
10316;DHT22;5203;48.976;8.306;2022-12-05T16:01:39;6.00;99.90
10316;DHT22;5203;48.976;8.306;2022-12-05T16:06:54;6.10;99.90
10316;DHT22;5203;48.976;8.306;2022-12-05T16:09:22;6.10;99.90
10316;DHT22;5203;48.976;8.306;2022-12-05T16:14:44;6.00;99.90
10316;DHT22;5203;48.976;8.306;2022-12-05T16:17:15;6.10;99.90
10316;DHT22;5203;48.976;8.306;2022-12-05T16:19:41;6.10;99.90
10316;DHT22;5203;48.976;8.306;2022-12-05T16:27:27;6.20;99.90
10316;DHT22;5203;48.976;8.306;2022-12-05T16:30:18;6.20;99.90
10316;DHT22;5203;48.976;8.306;2022-12-05T16:32:46;6.20;99.90
10316;DHT22;5203;48.976;8.306;2022-12-05T16:35:36;6.20;99.90
10316;DHT22;5203;48.976;8.306;2022-12-05T16:40:28;6.20;99.90
10316;DHT22;5203;48.976;8.306;2022-12-05T16:45:45;6.20;99.90
10316;DHT22;5203;48.976;8.306;2022-12-05T16:50:46;6.20;99.90
10316;DHT22;5203;48.976;8.306;2022-12-05T16:53:18;6.30;99.90
10316;DHT22;5203;48.976;8.306;2022-12-05T16:55:44;6.40;99.90
10316;DHT22;5203;48.976;8.306;2022-12-05T16:58:15;6.40;99.90
10316;DHT22;5203;48.976;8.306;2022-12-05T17:00:42;6.30;99.90
10316;DHT22;5203;48.976;8.306;2022-12-05T17:03:11;6.30;99.90
10316;DHT22;5203;48.976;8.306;2022-12-05T17:05:38;6.30;99.90
10316;DHT22;5203;48.976;8.306;2022-12-05T17:08:04;6.20;99.90
10316;DHT22;5203;48.976;8.306;2022-12-05T17:10:29;6.30;99.90
10316;DHT22;5203;48.976;8.306;2022-12-05T17:12:56;6.20;99.90
10316;DHT22;5203;48.976;8.306;2022-12-05T17:15:22;6.30;99.90
10316;DHT22;5203;48.976;8.306;2022-12-05T17:17:47;6.30;99.90
10316;DHT22;5203;48.976;8.306;2022-12-05T17:20:13;6.30;99.90
10316;DHT22;5203;48.976;8.306;2022-12-05T17:22:39;6.30;99.90
10316;DHT22;5203;48.976;8.306;2022-12-05T17:25:37;6.30;99.90
10316;DHT22;5203;48.976;8.306;2022-12-05T17:28:04;6.30;99.90
10316;DHT22;5203;48.976;8.306;2022-12-05T17:30:29;6.30;99.90
10316;DHT22;5203;48.976;8.306;2022-12-05T17:32:55;6.20;99.90
10316;DHT22;5203;48.976;8.306;2022-12-05T17:35:21;6.20;99.90
10316;DHT22;5203;48.976;8.306;2022-12-05T17:37:47;6.20;99.90
10316;DHT22;5203;48.976;8.306;2022-12-05T17:40:13;6.20;99.90
10316;DHT22;5203;48.976;8.306;2022-12-05T17:42:39;6.20;99.90
10316;DHT22;5203;48.976;8.306;2022-12-05T17:45:10;6.20;99.90
10316;DHT22;5203;48.976;8.306;2022-12-05T17:47:36;6.20;99.90
10316;DHT22;5203;48.976;8.306;2022-12-05T17:50:03;6.20;99.90
10316;DHT22;5203;48.976;8.306;2022-12-05T17:52:30;6.20;99.90
10316;DHT22;5203;48.976;8.306;2022-12-05T17:54:55;6.30;99.90
10316;DHT22;5203;48.976;8.306;2022-12-05T17:57:21;6.30;99.90
10316;DHT22;5203;48.976;8.306;2022-12-05T17:59:47;6.30;99.90
10316;DHT22;5203;48.976;8.306;2022-12-05T18:02:13;6.20;99.90
10316;DHT22;5203;48.976;8.306;2022-12-05T18:04:40;6.10;99.90
10316;DHT22;5203;48.976;8.306;2022-12-05T18:07:05;6.10;99.90
10316;DHT22;5203;48.976;8.306;2022-12-05T18:09:31;6.10;99.90
10316;DHT22;5203;48.976;8.306;2022-12-05T18:11:57;6.10;99.90
10316;DHT22;5203;48.976;8.306;2022-12-05T18:14:22;6.10;99.90
10316;DHT22;5203;48.976;8.306;2022-12-05T18:16:50;6.10;99.90
10316;DHT22;5203;48.976;8.306;2022-12-05T18:19:15;6.10;99.90
10316;DHT22;5203;48.976;8.306;2022-12-05T18:21:41;6.10;99.90
10316;DHT22;5203;48.976;8.306;2022-12-05T18:24:07;6.10;99.90
10316;DHT22;5203;48.976;8.306;2022-12-05T18:26:32;6.10;99.90
10316;DHT22;5203;48.976;8.306;2022-12-05T18:28:58;6.00;99.90
10316;DHT22;5203;48.976;8.306;2022-12-05T18:31:24;6.00;99.90
10316;DHT22;5203;48.976;8.306;2022-12-05T18:33:50;6.00;99.90
10316;DHT22;5203;48.976;8.306;2022-12-05T18:36:18;5.90;99.90
10316;DHT22;5203;48.976;8.306;2022-12-05T18:38:52;5.90;99.90
10316;DHT22;5203;48.976;8.306;2022-12-05T18:41:18;5.90;99.90
10316;DHT22;5203;48.976;8.306;2022-12-05T18:43:46;5.90;99.90
10316;DHT22;5203;48.976;8.306;2022-12-05T18:46:12;6.00;99.90
10316;DHT22;5203;48.976;8.306;2022-12-05T18:48:38;6.00;99.90
10316;DHT22;5203;48.976;8.306;2022-12-05T18:51:14;6.00;99.90
10316;DHT22;5203;48.976;8.306;2022-12-05T18:53:41;6.00;99.90
10316;DHT22;5203;48.976;8.306;2022-12-05T18:56:12;6.00;99.90
10316;DHT22;5203;48.976;8.306;2022-12-05T18:58:38;5.90;99.90
10316;DHT22;5203;48.976;8.306;2022-12-05T19:01:08;6.00;99.90
10316;DHT22;5203;48.976;8.306;2022-12-05T19:03:35;6.00;99.90
10316;DHT22;5203;48.976;8.306;2022-12-05T19:06:09;6.00;99.90
10316;DHT22;5203;48.976;8.306;2022-12-05T19:08:35;5.90;99.90
10316;DHT22;5203;48.976;8.306;2022-12-05T19:11:03;6.00;99.90
10316;DHT22;5203;48.976;8.306;2022-12-05T19:13:29;5.90;99.90
10316;DHT22;5203;48.976;8.306;2022-12-05T19:16:05;5.80;99.90
10316;DHT22;5203;48.976;8.306;2022-12-05T19:18:32;5.80;99.90
10316;DHT22;5203;48.976;8.306;2022-12-05T19:20:58;5.70;99.90
10316;DHT22;5203;48.976;8.306;2022-12-05T19:23:24;5.60;99.90
10316;DHT22;5203;48.976;8.306;2022-12-05T19:25:58;5.50;99.90
10316;DHT22;5203;48.976;8.306;2022-12-05T19:28:24;5.40;99.90
10316;DHT22;5203;48.976;8.306;2022-12-05T19:31:07;5.50;99.90
10316;DHT22;5203;48.976;8.306;2022-12-05T19:33:41;5.50;99.90
10316;DHT22;5203;48.976;8.306;2022-12-05T19:38:38;5.60;99.90
10316;DHT22;5203;48.976;8.306;2022-12-05T19:41:05;5.60;99.90
10316;DHT22;5203;48.976;8.306;2022-12-05T19:43:32;5.60;99.90